Carshalton, United Kingdom
Current Conditions -  °F | °C
As of 7:20 AM on Saturday 01 Nov 2014 (Local Time) from EGLC Reporting Station
Few Clouds Few Clouds  
Wind Chill: 63°   Ceiling: Unl
Heat Index: 63°   Visibility: 6mi
Dew Point: 57°   Wind: 8mph
Humidity: 82%   Direction: 230°SW
Pressure: 29.97"   Gusts: NA
Location:  51.38°N, 0.18°W
Report Text: EGLC 010720Z 23007KT 9999 FEW020 17/14 Q1015
Loading
Personal Weather Stations






























Interactive Weather Map
Tropical Storm Tracking
New forecast layout! Learn more

10-Day Weather Forecast

Advertisements
Track Severe Weather on mobile